createdAt,value
2022-12-23T00:07:11.373Z,6.62
2022-12-23T00:14:58.217Z,6.21
2022-12-23T00:22:18.014Z,6.13
2022-12-23T00:29:36.249Z,5.96
2022-12-23T00:36:54.704Z,5.84
2022-12-23T00:44:14.474Z,5.73
2022-12-23T00:51:32.656Z,5.66
2022-12-23T00:58:50.975Z,5.66
2022-12-23T01:06:10.825Z,5.75
2022-12-23T01:13:28.934Z,5.82
2022-12-23T01:20:47.204Z,5.77
2022-12-23T01:28:07.345Z,5.77
2022-12-23T01:35:25.558Z,5.76
2022-12-23T01:42:47.434Z,5.60
2022-12-23T01:50:10.523Z,5.51
2022-12-23T01:57:29.437Z,5.34
2022-12-23T02:04:48.358Z,5.32
2022-12-23T02:12:31.868Z,5.22
2022-12-23T02:20:09.221Z,5.10
2022-12-23T02:27:31.619Z,5.02
2022-12-23T02:34:55.522Z,5.00
2022-12-23T02:42:17.999Z,4.69
2022-12-23T02:49:39.465Z,4.40
2022-12-23T02:57:01.893Z,4.26
2022-12-23T03:04:20.230Z,4.07
2022-12-23T03:11:46.601Z,4.07
2022-12-23T03:19:16.272Z,3.97
2022-12-23T03:26:40.225Z,3.93
2022-12-23T03:34:00.876Z,3.87
2022-12-23T03:41:22.614Z,4.05
2022-12-23T03:48:45.710Z,4.11
2022-12-23T03:56:09.227Z,3.99
2022-12-23T04:03:31.224Z,4.02
2022-12-23T04:10:50.003Z,4.14
2022-12-23T04:18:08.479Z,4.24
2022-12-23T04:25:27.975Z,4.39
2022-12-23T04:32:46.343Z,4.38
2022-12-23T04:40:04.937Z,4.24
2022-12-23T04:47:24.500Z,4.47
2022-12-23T04:54:46.300Z,4.49
2022-12-23T05:02:05.068Z,4.61
2022-12-23T05:09:25.441Z,4.59
2022-12-23T05:16:43.736Z,4.70
2022-12-23T05:24:02.004Z,4.81
2022-12-23T05:31:21.820Z,4.87
2022-12-23T05:38:41.690Z,5.01
2022-12-23T05:46:00.190Z,5.05
2022-12-23T05:53:20.580Z,5.03
2022-12-23T06:00:39.139Z,4.98
2022-12-23T06:07:57.634Z,4.96
2022-12-23T06:15:17.505Z,4.95
2022-12-23T06:22:35.805Z,4.99
2022-12-23T06:29:54.184Z,4.93
2022-12-23T06:37:16.125Z,4.94
2022-12-23T06:44:34.458Z,5.01
2022-12-23T06:51:53.107Z,4.97
2022-12-23T06:59:13.344Z,4.97
2022-12-23T07:06:31.735Z,4.98
2022-12-23T07:13:52.315Z,5.03
2022-12-23T07:21:21.220Z,5.08
2022-12-23T07:28:46.075Z,5.16
2022-12-23T07:36:04.362Z,5.13
2022-12-23T07:43:24.232Z,5.24
2022-12-23T07:50:44.779Z,5.20
2022-12-23T07:58:03.072Z,5.27
2022-12-23T08:05:24.483Z,5.49
2022-12-23T08:12:42.979Z,5.64
2022-12-23T08:20:01.603Z,5.72
2022-12-23T08:27:21.903Z,5.76
2022-12-23T08:34:40.476Z,5.83
2022-12-23T08:41:58.810Z,5.94
2022-12-23T08:49:18.770Z,5.93
2022-12-23T08:56:40.838Z,5.97
2022-12-23T09:03:59.429Z,6.05
2022-12-23T09:11:21.518Z,6.18
2022-12-23T09:18:40.233Z,6.24
2022-12-23T09:25:58.844Z,6.42
2022-12-23T09:33:18.680Z,6.43
2022-12-23T09:40:39.322Z,6.44
2022-12-23T09:47:58.460Z,6.35
2022-12-23T09:55:19.708Z,6.35
2022-12-23T10:02:53.736Z,6.42
2022-12-23T10:10:19.774Z,6.39
2022-12-23T10:17:41.736Z,6.44
2022-12-23T10:25:00.470Z,6.47
2022-12-23T10:32:25.558Z,6.59
2022-12-23T10:39:53.155Z,6.70
2022-12-23T10:47:18.515Z,6.79
2022-12-23T10:54:38.915Z,6.99
2022-12-23T11:02:01.623Z,7.08
2022-12-23T11:09:22.682Z,7.18
2022-12-23T11:16:47.432Z,7.35
2022-12-23T11:24:19.676Z,7.51
2022-12-23T11:31:37.996Z,7.86
2022-12-23T11:39:05.415Z,8.02
2022-12-23T11:46:27.422Z,7.95
2022-12-23T11:53:45.803Z,8.05
2022-12-23T12:01:17.338Z,8.04
2022-12-23T12:08:38.421Z,8.29
2022-12-23T12:16:29.467Z,8.38
2022-12-23T12:24:08.340Z,8.36
2022-12-23T12:31:35.022Z,8.37
2022-12-23T12:38:54.358Z,8.27
2022-12-23T12:46:21.886Z,8.36
2022-12-23T12:53:49.581Z,8.34
2022-12-23T13:01:23.093Z,8.25
2022-12-23T13:08:57.179Z,8.27
2022-12-23T13:16:24.203Z,8.29
2022-12-23T13:23:49.732Z,8.30
2022-12-23T13:31:14.852Z,8.33
2022-12-23T13:38:45.971Z,8.46
2022-12-23T13:46:11.941Z,8.69
2022-12-23T13:53:41.716Z,8.54
2022-12-23T14:01:01.105Z,8.57
2022-12-23T14:08:28.030Z,8.51
2022-12-23T14:16:00.334Z,8.96
2022-12-23T14:23:31.646Z,9.02
2022-12-23T14:30:50.195Z,9.27
2022-12-23T14:38:24.757Z,8.87
2022-12-23T14:45:44.993Z,8.64
2022-12-23T14:53:03.360Z,8.82
2022-12-23T15:00:21.637Z,9.01
2022-12-23T15:07:43.554Z,8.61
2022-12-23T15:15:03.441Z,8.23
2022-12-23T15:22:28.490Z,8.19
2022-12-23T15:29:53.980Z,8.48
2022-12-23T15:37:13.066Z,8.20
2022-12-23T15:44:39.535Z,8.13
2022-12-23T15:52:13.791Z,8.58
2022-12-23T15:59:38.998Z,8.64
2022-12-23T16:07:05.442Z,8.47
2022-12-23T16:14:35.500Z,8.50
2022-12-23T16:21:53.942Z,8.15
2022-12-23T16:29:14.574Z,8.04
2022-12-23T16:36:37.703Z,8.04
2022-12-23T16:43:56.028Z,8.00
2022-12-23T16:51:17.132Z,8.03
2022-12-23T16:58:35.583Z,7.95
2022-12-23T17:05:53.862Z,7.86
2022-12-23T17:13:14.644Z,7.95
2022-12-23T17:20:35.494Z,7.95
2022-12-23T17:27:55.784Z,7.97
2022-12-23T17:35:17.198Z,7.80
2022-12-23T17:42:35.737Z,7.69
2022-12-23T17:49:54.034Z,7.61
2022-12-23T17:57:22.458Z,7.63
2022-12-23T18:04:40.800Z,7.48
2022-12-23T18:11:59.007Z,7.55
2022-12-23T18:19:21.062Z,7.55
2022-12-23T18:26:39.541Z,7.51
2022-12-23T18:33:58.039Z,7.51
2022-12-23T18:41:18.103Z,7.47
2022-12-23T18:48:36.325Z,7.57
2022-12-23T18:55:54.982Z,7.48
2022-12-23T19:03:24.960Z,7.44
2022-12-23T19:10:43.396Z,7.40
2022-12-23T19:18:01.963Z,7.40
2022-12-23T19:25:22.914Z,7.33
2022-12-23T19:32:41.531Z,7.09
2022-12-23T19:40:00.550Z,7.09
2022-12-23T19:47:20.617Z,6.93
2022-12-23T19:54:39.152Z,6.81
2022-12-23T20:01:58.126Z,6.68
2022-12-23T20:09:18.386Z,6.63
2022-12-23T20:16:37.564Z,6.59
2022-12-23T20:23:56.557Z,6.49
2022-12-23T20:31:19.274Z,6.47
2022-12-23T20:38:38.919Z,6.41
2022-12-23T20:45:57.257Z,6.27
2022-12-23T20:53:17.064Z,6.13
2022-12-23T21:00:35.370Z,6.07
2022-12-23T21:07:53.813Z,6.15
2022-12-23T21:15:14.992Z,6.20
2022-12-23T21:22:33.270Z,6.26
2022-12-23T21:29:51.573Z,6.41
2022-12-23T21:37:11.894Z,6.51
2022-12-23T21:44:30.197Z,6.48
2022-12-23T21:51:48.649Z,6.45
2022-12-23T21:59:10.332Z,6.41
2022-12-23T22:06:29.987Z,6.41
2022-12-23T22:13:48.771Z,6.44
2022-12-23T22:21:11.127Z,6.42
2022-12-23T22:28:33.655Z,6.48
2022-12-23T22:35:55.823Z,6.52
2022-12-23T22:43:15.577Z,6.57
2022-12-23T22:50:33.944Z,6.56
2022-12-23T22:57:52.239Z,6.58
2022-12-23T23:05:13.184Z,6.63
2022-12-23T23:12:31.698Z,6.63
2022-12-23T23:19:50.400Z,6.69
2022-12-23T23:27:10.093Z,6.66
2022-12-23T23:34:28.420Z,6.55
2022-12-23T23:41:47.210Z,6.54
2022-12-23T23:49:06.911Z,6.54
2022-12-23T23:56:27.292Z,6.49
